Time;durP1;ratioP1;P1;durP2;ratioP2;P2;SDS_P1;SDS_P2;PMS_P1;PMS_P2;Temp;Humidity;BMP_temperature;BMP_pressure;BME280_temperature;BME280_humidity;BME280_pressure;Samples;Min_cycle;Max_cycle;Signal;HPM_P1;HPM_P2
2022/07/25 00:01:57;;;;;;;;;;;;;;;;;;5037914;28;19928;-78
2022/07/25 00:04:22;;;;;;;;;;;;;;;;;;5054504;28;19921;-78
2022/07/25 00:06:47;;;;;;;;;;;;;;;;;;5055707;28;19982;-78
2022/07/25 00:09:13;;;;;;;;;;;;;;;;;;5054576;28;19917;-78
2022/07/25 00:11:38;;;;;;;;;;;;;;;;;;5053437;28;20367;-78
2022/07/25 00:14:04;;;;;;;;;;;;;;;;;;5055647;28;19960;-78
2022/07/25 00:16:29;;;;;;;;;;;;;;;;;;5054346;28;19924;-79
2022/07/25 00:18:54;;;;;;;;;;;;;;;;;;5054278;28;19921;-78
2022/07/25 00:21:19;;;;;;;;;;;;;;;;;;5054559;28;20356;-78
2022/07/25 00:23:45;;;;;;;;;;;;;;;;;;5054409;28;19929;-78
2022/07/25 00:26:10;;;;;;;;;;;;;;;;;;5055154;28;19925;-78
2022/07/25 00:28:35;;;;;;;;;;;;;;;;;;5054177;28;20367;-78
2022/07/25 00:31:00;;;;;;;;;;;;;;;;;;5055567;28;20035;-79
2022/07/25 00:33:26;;;;;;;;;;;;;;;;;;5053985;28;19913;-78
2022/07/25 00:35:51;;;;;;;;;;;;;;;;;;5055736;28;19917;-79
2022/07/25 00:38:16;;;;;;;;;;;;;;;;;;5037246;28;19921;-78
2022/07/25 00:40:41;;;;;;;;;;;;;;;;;;5055085;28;19920;-78
2022/07/25 00:43:07;;;;;;;;;;;;;;;;;;5054086;28;20363;-78
2022/07/25 00:45:32;;;;;;;;;;;;;;;;;;5053633;28;19932;-78
2022/07/25 00:47:57;;;;;;;;;;;;;;;;;;5037063;28;19948;-78
2022/07/25 00:50:23;;;;;;;;;;;;;;;;;;5053663;28;19913;-78
2022/07/25 00:52:48;;;;;;;;;;;;;;;;;;5053935;28;19924;-78
2022/07/25 00:55:13;;;;;;;;;;;;;;;;;;5055616;28;19928;-78
2022/07/25 00:57:39;;;;;;;;;;;;;;;;;;5036846;28;19957;-78
2022/07/25 01:00:09;;;;;;;;;;;;;;;;;;5055014;28;19912;-78
2022/07/25 01:02:34;;;;;;;;;;;;;;;;;;5053390;28;19913;-78
2022/07/25 01:04:59;;;;;;;;;;;;;;;;;;5054741;28;19931;-78
2022/07/25 01:07:25;;;;;;;;;;;;;;;;;;5053689;28;19974;-78
2022/07/25 01:09:50;;;;;;;;;;;;;;;;;;5054723;28;19966;-78
2022/07/25 01:12:15;;;;;;;;;;;;;;;;;;5053533;28;19912;-78
2022/07/25 01:14:41;;;;;;;;;;;;;;;;;;5054548;28;19917;-78
2022/07/25 01:17:06;;;;;;;;;;;;;;;;;;5053354;28;19913;-78
2022/07/25 01:19:31;;;;;;;;;;;;;;;;;;5053275;28;19923;-78
2022/07/25 01:21:56;;;;;;;;;;;;;;;;;;5053169;28;20438;-78
2022/07/25 01:24:22;;;;;;;;;;;;;;;;;;5054289;28;19928;-78
2022/07/25 01:26:47;;;;;;;;;;;;;;;;;;5052925;28;19982;-78
2022/07/25 01:29:12;;;;;;;;;;;;;;;;;;5052940;28;19921;-78
2022/07/25 01:31:37;;;;;;;;;;;;;;;;;;5054294;28;19923;-78
2022/07/25 01:34:03;;;;;;;;;;;;;;;;;;5052869;28;19927;-78
2022/07/25 01:36:28;;;;;;;;;;;;;;;;;;5052829;28;19913;-78
2022/07/25 01:38:53;;;;;;;;;;;;;;;;;;5052696;28;20371;-78
2022/07/25 01:41:18;;;;;;;;;;;;;;;;;;5054009;28;20371;-78
2022/07/25 01:43:44;;;;;;;;;;;;;;;;;;5052982;28;19916;-78
2022/07/25 01:46:09;;;;;;;;;;;;;;;;;;5054103;28;20367;-78
2022/07/25 01:48:34;;;;;;;;;;;;;;;;;;5053977;28;19970;-78
2022/07/25 01:50:59;;;;;;;;;;;;;;;;;;5053952;28;19916;-79
2022/07/25 01:53:25;;;;;;;;;;;;;;;;;;5054116;28;19917;-79
2022/07/25 01:55:50;;;;;;;;;;;;;;;;;;5053021;28;19920;-78
2022/07/25 01:58:15;;;;;;;;;;;;;;;;;;5053761;28;19916;-78
2022/07/25 02:00:40;;;;;;;;;;;;;;;;;;5052350;28;20299;-78
2022/07/25 02:05:49;;;;;;;;;;;;;;;;;;5053574;28;19928;-78
2022/07/25 02:08:14;;;;;;;;;;;;;;;;;;5053813;28;19917;-78
2022/07/25 02:10:40;;;;;;;;;;;;;;;;;;5052273;28;20002;-78
2022/07/25 02:13:05;;;;;;;;;;;;;;;;;;5053670;28;20010;-78
2022/07/25 02:15:30;;;;;;;;;;;;;;;;;;5053534;28;19917;-78
2022/07/25 02:17:56;;;;;;;;;;;;;;;;;;5052548;28;20423;-78
2022/07/25 02:20:21;;;;;;;;;;;;;;;;;;5053640;28;20279;-78
2022/07/25 02:22:46;;;;;;;;;;;;;;;;;;5053281;28;19920;-78
2022/07/25 02:25:11;;;;;;;;;;;;;;;;;;5035304;28;19932;-78
2022/07/25 02:27:37;;;;;;;;;;;;;;;;;;5052289;28;20016;-78
2022/07/25 02:30:02;;;;;;;;;;;;;;;;;;5035932;28;20378;-78
2022/07/25 02:32:28;;;;;;;;;;;;;;;;;;5052007;28;19920;-78
2022/07/25 02:34:53;;;;;;;;;;;;;;;;;;5053138;28;20418;-78
2022/07/25 02:37:18;;;;;;;;;;;;;;;;;;5053157;28;19917;-78
2022/07/25 02:39:43;;;;;;;;;;;;;;;;;;5052110;28;19923;-78
2022/07/25 02:42:08;;;;;;;;;;;;;;;;;;5053069;28;19916;-78
2022/07/25 02:44:34;;;;;;;;;;;;;;;;;;5052122;28;20355;-78
2022/07/25 02:46:59;;;;;;;;;;;;;;;;;;5051900;28;19974;-78
2022/07/25 02:49:24;;;;;;;;;;;;;;;;;;5051775;28;20014;-78
2022/07/25 02:51:49;;;;;;;;;;;;;;;;;;5052851;28;19971;-78
2022/07/25 02:54:15;;;;;;;;;;;;;;;;;;5034829;28;19921;-78
2022/07/25 02:56:40;;;;;;;;;;;;;;;;;;5052806;28;19917;-78
2022/07/25 02:59:05;;;;;;;;;;;;;;;;;;5034935;28;19920;-78
2022/07/25 03:01:31;;;;;;;;;;;;;;;;;;5052847;28;19955;-78
2022/07/25 03:03:56;;;;;;;;;;;;;;;;;;5034873;28;20002;-78
2022/07/25 03:06:23;;;;;;;;;;;;;;;;;;5052318;28;20284;-78
2022/07/25 03:08:48;;;;;;;;;;;;;;;;;;5053073;28;19943;-78
2022/07/25 03:11:15;;;;;;;;;;;;;;;;;;5035091;28;19956;-78
2022/07/25 03:13:40;;;;;;;;;;;;;;;;;;5051394;28;19916;-78
2022/07/25 03:16:06;;;;;;;;;;;;;;;;;;5052892;28;20283;-78
2022/07/25 03:18:31;;;;;;;;;;;;;;;;;;5052942;28;19916;-78
2022/07/25 03:20:56;;;;;;;;;;;;;;;;;;5051274;28;19921;-78
2022/07/25 03:23:23;;;;;;;;;;;;;;;;;;5051355;28;20403;-78
2022/07/25 03:25:49;;;;;;;;;;;;;;;;;;5050982;28;20291;-78
2022/07/25 03:28:14;;;;;;;;;;;;;;;;;;5053067;28;19921;-78
2022/07/25 03:30:39;;;;;;;;;;;;;;;;;;5052753;28;19916;-78
2022/07/25 03:33:04;;;;;;;;;;;;;;;;;;5052716;28;20073;-78
2022/07/25 03:35:30;;;;;;;;;;;;;;;;;;5052309;28;19916;-78
2022/07/25 03:37:55;;;;;;;;;;;;;;;;;;5050972;28;19917;-78
2022/07/25 03:40:20;;;;;;;;;;;;;;;;;;5052394;28;19921;-78
2022/07/25 03:42:45;;;;;;;;;;;;;;;;;;5052218;28;19917;-78
2022/07/25 03:45:11;;;;;;;;;;;;;;;;;;5052484;28;19975;-78
2022/07/25 03:47:36;;;;;;;;;;;;;;;;;;5054034;28;19917;-78
2022/07/25 03:50:01;;;;;;;;;;;;;;;;;;5055987;28;19917;-78
2022/07/25 03:52:27;;;;;;;;;;;;;;;;;;5054790;28;19935;-78
2022/07/25 03:54:52;;;;;;;;;;;;;;;;;;5054910;28;19921;-78
2022/07/25 03:57:17;;;;;;;;;;;;;;;;;;5055767;28;19960;-78
2022/07/25 03:59:42;;;;;;;;;;;;;;;;;;5054890;28;20257;-78
2022/07/25 04:02:08;;;;;;;;;;;;;;;;;;5055756;28;20347;-78
2022/07/25 04:04:33;;;;;;;;;;;;;;;;;;5056098;28;20378;-78
2022/07/25 04:06:58;;;;;;;;;;;;;;;;;;5054387;28;19936;-78
2022/07/25 04:09:24;;;;;;;;;;;;;;;;;;5054405;28;19970;-78
2022/07/25 04:11:49;;;;;;;;;;;;;;;;;;5055791;28;19917;-78
2022/07/25 04:14:14;;;;;;;;;;;;;;;;;;5054378;28;19923;-78
2022/07/25 04:16:40;;;;;;;;;;;;;;;;;;5055086;28;19923;-78
2022/07/25 04:19:05;;;;;;;;;;;;;;;;;;5055128;28;20057;-78
2022/07/25 04:21:31;;;;;;;;;;;;;;;;;;5053930;28;19943;-78
2022/07/25 04:23:56;;;;;;;;;;;;;;;;;;5055627;28;19920;-78
2022/07/25 04:26:21;;;;;;;;;;;;;;;;;;5053850;28;19924;-78
2022/07/25 04:28:46;;;;;;;;;;;;;;;;;;5054125;28;19940;-78
2022/07/25 04:31:12;;;;;;;;;;;;;;;;;;5055250;28;19965;-78
2022/07/25 04:33:38;;;;;;;;;;;;;;;;;;5053916;28;20359;-78
2022/07/25 04:36:03;;;;;;;;;;;;;;;;;;5054016;28;20282;-78
2022/07/25 04:38:28;;;;;;;;;;;;;;;;;;5036901;28;19920;-78
2022/07/25 04:40:54;;;;;;;;;;;;;;;;;;5054828;28;19917;-78
2022/07/25 04:43:19;;;;;;;;;;;;;;;;;;5053668;28;19917;-78
2022/07/25 04:45:44;;;;;;;;;;;;;;;;;;5053435;28;20450;-78
2022/07/25 04:48:10;;;;;;;;;;;;;;;;;;5054695;28;20366;-78
2022/07/25 04:50:35;;;;;;;;;;;;;;;;;;5055296;28;19916;-78
2022/07/25 04:53:00;;;;;;;;;;;;;;;;;;5054611;28;19963;-78
2022/07/25 04:55:25;;;;;;;;;;;;;;;;;;5055112;28;20066;-78
2022/07/25 04:57:51;;;;;;;;;;;;;;;;;;5053030;28;20000;-78
2022/07/25 05:00:16;;;;;;;;;;;;;;;;;;5054428;28;19927;-78
2022/07/25 05:02:41;;;;;;;;;;;;;;;;;;5054575;28;19916;-78
2022/07/25 05:05:07;;;;;;;;;;;;;;;;;;5054829;28;19924;-78
2022/07/25 05:07:32;;;;;;;;;;;;;;;;;;5054670;28;20330;-78
2022/07/25 05:09:58;;;;;;;;;;;;;;;;;;5054977;28;19924;-78
2022/07/25 05:12:23;;;;;;;;;;;;;;;;;;5054467;28;19919;-78
2022/07/25 05:14:48;;;;;;;;;;;;;;;;;;5053052;28;19917;-78
2022/07/25 05:17:14;;;;;;;;;;;;;;;;;;5053428;28;19923;-78
2022/07/25 05:19:39;;;;;;;;;;;;;;;;;;5053422;28;20279;-78
2022/07/25 05:22:05;;;;;;;;;;;;;;;;;;5053246;28;19921;-78
2022/07/25 05:24:33;;;;;;;;;;;;;;;;;;5053079;28;19925;-77
2022/07/25 05:26:59;;;;;;;;;;;;;;;;;;5054464;28;19940;-78
2022/07/25 05:29:24;;;;;;;;;;;;;;;;;;5037132;28;20027;-78
2022/07/25 05:31:50;;;;;;;;;;;;;;;;;;5056066;28;20291;-78
2022/07/25 05:34:15;;;;;;;;;;;;;;;;;;5053906;28;19955;-77
2022/07/25 05:36:41;;;;;;;;;;;;;;;;;;5053927;28;19913;-78
2022/07/25 05:39:06;;;;;;;;;;;;;;;;;;5053051;28;19947;-78
2022/07/25 05:41:31;;;;;;;;;;;;;;;;;;5035987;28;19917;-78
2022/07/25 05:43:56;;;;;;;;;;;;;;;;;;5054016;28;19936;-78
2022/07/25 05:46:22;;;;;;;;;;;;;;;;;;5052544;28;19925;-78
2022/07/25 05:48:47;;;;;;;;;;;;;;;;;;5054117;28;19917;-78
2022/07/25 05:51:12;;;;;;;;;;;;;;;;;;5054137;28;19921;-78
2022/07/25 05:53:37;;;;;;;;;;;;;;;;;;5054023;28;19917;-78
2022/07/25 05:56:03;;;;;;;;;;;;;;;;;;5053024;28;20291;-78
2022/07/25 05:58:28;;;;;;;;;;;;;;;;;;5036874;28;19952;-78
2022/07/25 06:00:54;;;;;;;;;;;;;;;;;;5054704;28;20316;-78
2022/07/25 06:03:19;;;;;;;;;;;;;;;;;;5054340;28;19917;-78
2022/07/25 06:05:45;;;;;;;;;;;;;;;;;;5053995;28;19928;-78
2022/07/25 06:08:11;;;;;;;;;;;;;;;;;;5036507;28;19956;-77
2022/07/25 06:10:36;;;;;;;;;;;;;;;;;;5053151;28;19939;-79
2022/07/25 06:13:01;;;;;;;;;;;;;;;;;;5054143;28;19917;-78
2022/07/25 06:15:26;;;;;;;;;;;;;;;;;;5053763;28;20030;-77
2022/07/25 06:17:51;;;;;;;;;;;;;;;;;;5035810;28;20347;-77
2022/07/25 06:20:17;;;;;;;;;;;;;;;;;;5053620;28;19916;-77
2022/07/25 06:22:42;;;;;;;;;;;;;;;;;;5053547;28;20012;-77
2022/07/25 06:25:08;;;;;;;;;;;;;;;;;;5053720;28;20410;-77
2022/07/25 06:27:34;;;;;;;;;;;;;;;;;;5052467;28;20008;-77
2022/07/25 06:29:59;;;;;;;;;;;;;;;;;;5035562;28;20358;-77
2022/07/25 06:32:24;;;;;;;;;;;;;;;;;;5054461;28;19962;-77
2022/07/25 06:34:50;;;;;;;;;;;;;;;;;;5054464;28;19916;-77
2022/07/25 06:37:15;;;;;;;;;;;;;;;;;;5052208;28;20005;-77
2022/07/25 06:39:40;;;;;;;;;;;;;;;;;;5051933;28;19924;-77
2022/07/25 06:42:05;;;;;;;;;;;;;;;;;;5051998;28;20255;-78
2022/07/25 06:44:32;;;;;;;;;;;;;;;;;;5053612;28;19917;-78
2022/07/25 06:46:57;;;;;;;;;;;;;;;;;;5052121;28;19959;-77
2022/07/25 06:49:23;;;;;;;;;;;;;;;;;;5034970;28;19921;-79
2022/07/25 06:51:48;;;;;;;;;;;;;;;;;;5052834;28;19948;-78
2022/07/25 06:54:14;;;;;;;;;;;;;;;;;;5052916;28;20318;-78
2022/07/25 06:56:39;;;;;;;;;;;;;;;;;;5051419;28;19923;-78
2022/07/25 06:59:05;;;;;;;;;;;;;;;;;;5051534;28;19916;-78
2022/07/25 07:01:30;;;;;;;;;;;;;;;;;;5052193;28;19925;-79
2022/07/25 07:03:55;;;;;;;;;;;;;;;;;;5052924;28;19960;-79
2022/07/25 07:06:20;;;;;;;;;;;;;;;;;;5052118;28;20321;-80
2022/07/25 07:08:46;;;;;;;;;;;;;;;;;;5050574;28;19924;-80
2022/07/25 07:11:14;;;;;;;;;;;;;;;;;;5037227;28;19917;-80
2022/07/25 07:13:39;;;;;;;;;;;;;;;;;;5030961;28;19987;-79
2022/07/25 07:16:04;;;;;;;;;;;;;;;;;;5015018;28;19921;-79
2022/07/25 07:18:29;;;;;;;;;;;;;;;;;;5033003;28;20411;-80
2022/07/25 07:20:55;;;;;;;;;;;;;;;;;;5032376;28;20264;-80
2022/07/25 07:23:20;;;;;;;;;;;;;;;;;;5036799;28;19917;-80
2022/07/25 07:25:45;;;;;;;;;;;;;;;;;;5035188;28;20349;-79
2022/07/25 07:28:17;;;;;;;;;;;;;;;;;;5037805;28;19917;-78
2022/07/25 07:30:42;;;;;;;;;;;;;;;;;;5037502;28;20095;-80
2022/07/25 07:33:08;;;;;;;;;;;;;;;;;;5037600;28;19917;-79
2022/07/25 07:35:33;;;;;;;;;;;;;;;;;;5038663;28;19917;-80
2022/07/25 07:37:58;;;;;;;;;;;;;;;;;;5038152;28;19917;-80
2022/07/25 07:40:25;;;;;;;;;;;;;;;;;;5035668;28;19921;-79
2022/07/25 07:42:51;;;;;;;;;;;;;;;;;;5036697;28;19912;-79
2022/07/25 07:45:16;;;;;;;;;;;;;;;;;;5018308;28;19924;-79
2022/07/25 07:47:41;;;;;;;;;;;;;;;;;;5036235;28;19913;-78
2022/07/25 07:50:07;;;;;;;;;;;;;;;;;;5034790;28;19971;-79
2022/07/25 07:52:32;;;;;;;;;;;;;;;;;;5022520;28;19971;-77
2022/07/25 07:57:42;;;;;;;;;;;;;;;;;;5038836;28;19966;-78
2022/07/25 08:00:07;;;;;;;;;;;;;;;;;;5048539;28;19933;-77
2022/07/25 08:02:41;;;;;;;;;;;;;;;;;;5052368;28;19991;-77
2022/07/25 08:05:07;;;;;;;;;;;;;;;;;;5046338;28;20380;-77
2022/07/25 08:07:32;;;;;;;;;;;;;;;;;;5034068;28;19962;-78
2022/07/25 08:09:57;;;;;;;;;;;;;;;;;;5045943;28;20378;-78
2022/07/25 08:12:22;;;;;;;;;;;;;;;;;;5039632;28;19921;-78
2022/07/25 08:14:48;;;;;;;;;;;;;;;;;;5038281;28;19917;-78
2022/07/25 08:17:13;;;;;;;;;;;;;;;;;;5034951;28;20385;-78
2022/07/25 08:19:38;;;;;;;;;;;;;;;;;;5035064;28;19917;-78
2022/07/25 08:22:04;;;;;;;;;;;;;;;;;;5033778;28;19913;-78
2022/07/25 08:24:29;;;;;;;;;;;;;;;;;;5050148;28;19956;-79
2022/07/25 08:26:54;;;;;;;;;;;;;;;;;;5035092;28;19922;-78
2022/07/25 08:29:19;;;;;;;;;;;;;;;;;;5034707;28;20020;-78
2022/07/25 08:31:45;;;;;;;;;;;;;;;;;;5044690;28;19916;-79
2022/07/25 08:34:10;;;;;;;;;;;;;;;;;;5048244;28;19924;-80
2022/07/25 08:36:35;;;;;;;;;;;;;;;;;;5042387;28;19924;-80
2022/07/25 08:39:00;;;;;;;;;;;;;;;;;;5049364;28;19971;-78
2022/07/25 08:41:26;;;;;;;;;;;;;;;;;;5053223;28;19921;-78
2022/07/25 08:43:51;;;;;;;;;;;;;;;;;;5051135;28;19940;-78
2022/07/25 08:46:16;;;;;;;;;;;;;;;;;;5040307;28;19921;-78
2022/07/25 08:48:43;;;;;;;;;;;;;;;;;;5036757;28;20027;-78
2022/07/25 08:51:08;;;;;;;;;;;;;;;;;;5044086;28;19917;-79
2022/07/25 08:53:33;;;;;;;;;;;;;;;;;;5046274;28;19929;-78
2022/07/25 08:55:59;;;;;;;;;;;;;;;;;;5035458;28;19978;-80
2022/07/25 08:58:24;;;;;;;;;;;;;;;;;;5033905;28;19940;-78
2022/07/25 09:00:49;;;;;;;;;;;;;;;;;;5032978;28;20417;-80
2022/07/25 09:03:15;;;;;;;;;;;;;;;;;;5033053;28;20003;-78
2022/07/25 09:05:40;;;;;;;;;;;;;;;;;;5034156;28;19929;-78
2022/07/25 09:08:12;;;;;;;;;;;;;;;;;;5036421;28;19952;-78
2022/07/25 09:10:38;;;;;;;;;;;;;;;;;;5034171;28;19913;-78
2022/07/25 09:13:09;;;;;;;;;;;;;;;;;;5040247;28;19927;-78
2022/07/25 09:15:35;;;;;;;;;;;;;;;;;;5044285;28;19917;-79
2022/07/25 09:18:05;;;;;;;;;;;;;;;;;;5033751;28;19967;-79
2022/07/25 09:20:36;;;;;;;;;;;;;;;;;;5037353;28;19920;-79
2022/07/25 09:23:02;;;;;;;;;;;;;;;;;;5041734;28;19920;-79
2022/07/25 09:25:30;;;;;;;;;;;;;;;;;;5017277;28;19925;-79
2022/07/25 09:28:08;;;;;;;;;;;;;;;;;;5016629;28;20379;-80
2022/07/25 09:30:34;;;;;;;;;;;;;;;;;;5038140;28;20031;-79
2022/07/25 09:33:00;;;;;;;;;;;;;;;;;;5049591;28;19917;-80
2022/07/25 09:35:29;;;;;;;;;;;;;;;;;;5034572;28;19917;-79
2022/07/25 09:37:54;;;;;;;;;;;;;;;;;;5033038;28;20310;-79
2022/07/25 09:40:19;;;;;;;;;;;;;;;;;;5046087;28;19917;-79
2022/07/25 09:42:48;;;;;;;;;;;;;;;;;;5042687;28;19920;-80
2022/07/25 09:45:14;;;;;;;;;;;;;;;;;;5049361;28;20379;-79
2022/07/25 09:47:50;;;;;;;;;;;;;;;;;;5033434;28;19916;-78
2022/07/25 09:50:15;;;;;;;;;;;;;;;;;;5037892;28;19913;-79
2022/07/25 09:52:40;;;;;;;;;;;;;;;;;;5037259;28;20031;-78
2022/07/25 09:55:08;;;;;;;;;;;;;;;;;;5039575;28;19921;-78
2022/07/25 09:57:33;;;;;;;;;;;;;;;;;;5045935;28;19966;-78
2022/07/25 09:59:59;;;;;;;;;;;;;;;;;;5029419;28;19999;-80
2022/07/25 10:02:43;;;;;;;;;;;;;;;;;;5041160;28;20227;-79
2022/07/25 10:05:27;;;;;;;;;;;;;;;;;;5041307;28;19917;-78
2022/07/25 10:07:52;;;;;;;;;;;;;;;;;;5048857;28;20351;-78
2022/07/25 10:10:22;;;;;;;;;;;;;;;;;;5043470;28;19917;-79
2022/07/25 10:13:04;;;;;;;;;;;;;;;;;;5032522;28;19933;-76
2022/07/25 10:15:48;;;;;;;;;;;;;;;;;;5048985;28;20286;-79
2022/07/25 10:18:14;;;;;;;;;;;;;;;;;;5049698;28;19928;-79
2022/07/25 10:20:40;;;;;;;;;;;;;;;;;;5050507;28;19913;-80
2022/07/25 10:23:15;;;;;;;;;;;;;;;;;;5032603;28;19924;-78
2022/07/25 10:25:40;;;;;;;;;;;;;;;;;;5049327;28;19988;-78
2022/07/25 10:28:08;;;;;;;;;;;;;;;;;;5049556;28;20030;-78
2022/07/25 10:30:34;;;;;;;;;;;;;;;;;;5037389;28;19924;-78
2022/07/25 10:33:03;;;;;;;;;;;;;;;;;;5037626;28;20016;-78
2022/07/25 10:35:29;;;;;;;;;;;;;;;;;;5043638;28;20330;-78
2022/07/25 10:37:54;;;;;;;;;;;;;;;;;;5039297;28;19917;-78
2022/07/25 10:40:24;;;;;;;;;;;;;;;;;;5049567;28;19932;-78
2022/07/25 10:42:49;;;;;;;;;;;;;;;;;;5048635;28;20302;-79
2022/07/25 10:45:16;;;;;;;;;;;;;;;;;;5049056;28;19923;-79
2022/07/25 10:47:41;;;;;;;;;;;;;;;;;;5039659;28;19921;-82
2022/07/25 10:50:09;;;;;;;;;;;;;;;;;;5044852;28;20368;-80
2022/07/25 10:52:39;;;;;;;;;;;;;;;;;;5031751;28;19919;-80
2022/07/25 10:55:05;;;;;;;;;;;;;;;;;;5048577;28;19925;-80
2022/07/25 10:57:30;;;;;;;;;;;;;;;;;;5046555;28;19990;-79
2022/07/25 11:00:03;;;;;;;;;;;;;;;;;;5048857;28;20390;-78
2022/07/25 11:02:28;;;;;;;;;;;;;;;;;;5035436;28;20379;-79
2022/07/25 11:04:57;;;;;;;;;;;;;;;;;;5037504;28;19924;-78
2022/07/25 11:07:22;;;;;;;;;;;;;;;;;;5031363;28;19917;-78
2022/07/25 11:09:58;;;;;;;;;;;;;;;;;;5034778;28;19943;-80
2022/07/25 11:12:23;;;;;;;;;;;;;;;;;;5036638;28;19921;-79
2022/07/25 11:14:48;;;;;;;;;;;;;;;;;;5026836;28;20398;-79
2022/07/25 11:17:14;;;;;;;;;;;;;;;;;;5032264;28;19944;-79
2022/07/25 11:19:43;;;;;;;;;;;;;;;;;;5014227;28;19913;-79
2022/07/25 11:22:09;;;;;;;;;;;;;;;;;;5032361;28;19917;-79
2022/07/25 11:24:35;;;;;;;;;;;;;;;;;;5030678;28;19940;-79
2022/07/25 11:27:01;;;;;;;;;;;;;;;;;;5030703;28;20305;-78
2022/07/25 11:29:26;;;;;;;;;;;;;;;;;;5030899;28;19971;-78
2022/07/25 11:31:52;;;;;;;;;;;;;;;;;;5030986;28;19968;-79
2022/07/25 11:34:18;;;;;;;;;;;;;;;;;;5042539;28;19913;-79
2022/07/25 11:36:44;;;;;;;;;;;;;;;;;;5022777;28;19996;-79
2022/07/25 11:39:09;;;;;;;;;;;;;;;;;;5048829;28;19989;-78
2022/07/25 11:41:34;;;;;;;;;;;;;;;;;;5049264;28;20387;-79
2022/07/25 11:43:59;;;;;;;;;;;;;;;;;;5044848;28;19916;-78
2022/07/25 11:46:25;;;;;;;;;;;;;;;;;;5045227;28;20344;-79
2022/07/25 11:48:50;;;;;;;;;;;;;;;;;;5041597;28;19917;-79
2022/07/25 11:51:16;;;;;;;;;;;;;;;;;;5043869;28;19966;-79
2022/07/25 11:53:46;;;;;;;;;;;;;;;;;;5043913;28;19913;-78
2022/07/25 11:56:12;;;;;;;;;;;;;;;;;;5046701;28;19912;-78
2022/07/25 11:58:37;;;;;;;;;;;;;;;;;;5030912;28;20326;-77
2022/07/25 12:01:09;;;;;;;;;;;;;;;;;;5048127;28;20062;-77
2022/07/25 12:03:36;;;;;;;;;;;;;;;;;;5030292;28;19924;-77
2022/07/25 12:06:06;;;;;;;;;;;;;;;;;;5038857;28;20352;-77
2022/07/25 12:08:35;;;;;;;;;;;;;;;;;;5050615;28;19912;-78
2022/07/25 12:11:00;;;;;;;;;;;;;;;;;;5053494;28;19913;-77
2022/07/25 12:13:27;;;;;;;;;;;;;;;;;;5052562;28;20295;-77
2022/07/25 12:15:53;;;;;;;;;;;;;;;;;;5035550;28;19920;-77
2022/07/25 12:18:18;;;;;;;;;;;;;;;;;;5051863;28;20295;-77
2022/07/25 12:20:43;;;;;;;;;;;;;;;;;;5038475;28;19963;-77
2022/07/25 12:23:10;;;;;;;;;;;;;;;;;;5035125;28;19917;-77
2022/07/25 12:25:36;;;;;;;;;;;;;;;;;;5017314;28;20598;-77
2022/07/25 12:28:01;;;;;;;;;;;;;;;;;;5034180;28;19913;-77
2022/07/25 12:30:27;;;;;;;;;;;;;;;;;;5051477;28;19917;-78
2022/07/25 12:32:53;;;;;;;;;;;;;;;;;;5038104;28;20222;-78
2022/07/25 12:35:18;;;;;;;;;;;;;;;;;;5035846;28;19913;-78
2022/07/25 12:37:43;;;;;;;;;;;;;;;;;;5034826;28;19924;-78
2022/07/25 12:40:09;;;;;;;;;;;;;;;;;;5052644;28;19978;-77
2022/07/25 12:42:34;;;;;;;;;;;;;;;;;;5051505;28;20008;-77
2022/07/25 12:45:00;;;;;;;;;;;;;;;;;;5051567;28;19913;-76
2022/07/25 12:47:26;;;;;;;;;;;;;;;;;;5051281;28;19929;-77
2022/07/25 12:49:51;;;;;;;;;;;;;;;;;;5039783;28;20005;-77
2022/07/25 12:52:16;;;;;;;;;;;;;;;;;;5047336;28;20334;-77
2022/07/25 12:54:42;;;;;;;;;;;;;;;;;;5050102;28;19996;-77
2022/07/25 12:57:07;;;;;;;;;;;;;;;;;;5034892;28;20434;-77
2022/07/25 12:59:32;;;;;;;;;;;;;;;;;;5033222;28;20354;-77
2022/07/25 13:01:57;;;;;;;;;;;;;;;;;;5033295;28;20058;-77
2022/07/25 13:04:24;;;;;;;;;;;;;;;;;;5033036;28;19927;-77
2022/07/25 13:06:50;;;;;;;;;;;;;;;;;;5052546;28;19928;-77
2022/07/25 13:09:16;;;;;;;;;;;;;;;;;;5051176;28;20004;-77
2022/07/25 13:11:41;;;;;;;;;;;;;;;;;;5040801;28;19927;-77
2022/07/25 13:14:06;;;;;;;;;;;;;;;;;;5034344;28;19917;-77
2022/07/25 13:16:33;;;;;;;;;;;;;;;;;;5033847;28;19917;-76
2022/07/25 13:18:58;;;;;;;;;;;;;;;;;;5032661;28;19913;-77
2022/07/25 13:21:24;;;;;;;;;;;;;;;;;;5036887;28;19943;-77
2022/07/25 13:23:50;;;;;;;;;;;;;;;;;;5035874;28;19982;-77
2022/07/25 13:26:15;;;;;;;;;;;;;;;;;;5016884;28;20443;-77
2022/07/25 13:28:40;;;;;;;;;;;;;;;;;;5033592;28;19917;-77
2022/07/25 13:31:06;;;;;;;;;;;;;;;;;;5034899;28;19998;-77
2022/07/25 13:33:32;;;;;;;;;;;;;;;;;;5035311;28;20241;-76
2022/07/25 13:35:58;;;;;;;;;;;;;;;;;;5035217;28;19917;-76
2022/07/25 13:38:23;;;;;;;;;;;;;;;;;;5033827;28;20333;-76
2022/07/25 13:40:48;;;;;;;;;;;;;;;;;;5035278;28;19917;-76
2022/07/25 13:43:13;;;;;;;;;;;;;;;;;;5034818;28;19979;-75
2022/07/25 13:45:40;;;;;;;;;;;;;;;;;;5034657;28;20387;-77
2022/07/25 13:48:05;;;;;;;;;;;;;;;;;;5017266;28;19995;-77
2022/07/25 13:50:30;;;;;;;;;;;;;;;;;;5033840;28;19952;-76
2022/07/25 13:52:58;;;;;;;;;;;;;;;;;;5033847;28;19913;-77
2022/07/25 13:55:23;;;;;;;;;;;;;;;;;;5034130;28;19971;-76
2022/07/25 13:57:48;;;;;;;;;;;;;;;;;;5034227;28;19956;-78
2022/07/25 14:00:14;;;;;;;;;;;;;;;;;;5033403;28;19918;-76
2022/07/25 14:02:39;;;;;;;;;;;;;;;;;;5033536;28;19913;-77
2022/07/25 14:05:05;;;;;;;;;;;;;;;;;;5034148;28;19918;-77
2022/07/25 14:07:30;;;;;;;;;;;;;;;;;;5034349;28;19936;-75
2022/07/25 14:09:56;;;;;;;;;;;;;;;;;;5034344;28;19972;-75
2022/07/25 14:12:21;;;;;;;;;;;;;;;;;;5033048;28;20376;-75
2022/07/25 14:14:46;;;;;;;;;;;;;;;;;;5035205;28;19917;-76
2022/07/25 14:17:11;;;;;;;;;;;;;;;;;;5033239;28;20022;-75
2022/07/25 14:19:37;;;;;;;;;;;;;;;;;;5034403;28;19917;-75
2022/07/25 14:22:02;;;;;;;;;;;;;;;;;;5034056;28;19917;-75
2022/07/25 14:24:28;;;;;;;;;;;;;;;;;;5021645;28;19925;-74
2022/07/25 14:26:54;;;;;;;;;;;;;;;;;;5052840;28;20007;-76
2022/07/25 14:29:19;;;;;;;;;;;;;;;;;;5052705;28;19936;-76
2022/07/25 14:31:45;;;;;;;;;;;;;;;;;;5053129;28;19924;-76
2022/07/25 14:34:10;;;;;;;;;;;;;;;;;;5052675;28;19960;-76
2022/07/25 14:36:35;;;;;;;;;;;;;;;;;;5052132;28;20007;-76
2022/07/25 14:39:01;;;;;;;;;;;;;;;;;;5052068;28;19924;-76
2022/07/25 14:41:26;;;;;;;;;;;;;;;;;;5037274;28;19974;-75
2022/07/25 14:43:52;;;;;;;;;;;;;;;;;;5054477;28;20432;-76
2022/07/25 14:46:18;;;;;;;;;;;;;;;;;;5052020;28;19995;-76
2022/07/25 14:48:43;;;;;;;;;;;;;;;;;;5052148;28;19921;-75
2022/07/25 14:51:08;;;;;;;;;;;;;;;;;;5053492;28;19956;-76
2022/07/25 14:53:34;;;;;;;;;;;;;;;;;;5035392;28;19919;-76
2022/07/25 14:55:59;;;;;;;;;;;;;;;;;;5053570;28;19982;-77
2022/07/25 14:58:25;;;;;;;;;;;;;;;;;;5052153;28;19917;-76
2022/07/25 15:00:50;;;;;;;;;;;;;;;;;;5053204;28;19918;-77
2022/07/25 15:03:15;;;;;;;;;;;;;;;;;;5053847;28;19924;-77
2022/07/25 15:05:41;;;;;;;;;;;;;;;;;;5051888;28;19987;-76
2022/07/25 15:08:06;;;;;;;;;;;;;;;;;;5035457;28;20043;-76
2022/07/25 15:10:31;;;;;;;;;;;;;;;;;;5052880;28;19990;-76
2022/07/25 15:12:56;;;;;;;;;;;;;;;;;;5051941;28;19917;-76
2022/07/25 15:15:22;;;;;;;;;;;;;;;;;;5051964;28;20363;-76
2022/07/25 15:17:47;;;;;;;;;;;;;;;;;;5035001;28;19917;-77
2022/07/25 15:20:12;;;;;;;;;;;;;;;;;;5053370;28;20297;-77
2022/07/25 15:22:37;;;;;;;;;;;;;;;;;;5052993;28;19956;-77
2022/07/25 15:25:04;;;;;;;;;;;;;;;;;;5052406;28;19967;-77
2022/07/25 15:27:29;;;;;;;;;;;;;;;;;;5053648;28;19921;-76
2022/07/25 15:29:55;;;;;;;;;;;;;;;;;;5052212;28;20317;-76
2022/07/25 15:32:20;;;;;;;;;;;;;;;;;;5053581;28;19916;-76
2022/07/25 15:34:45;;;;;;;;;;;;;;;;;;5052926;28;19921;-77
2022/07/25 15:37:11;;;;;;;;;;;;;;;;;;5053017;28;20405;-77
2022/07/25 15:39:36;;;;;;;;;;;;;;;;;;5034816;28;19923;-76
2022/07/25 15:42:01;;;;;;;;;;;;;;;;;;5053513;28;19966;-77
2022/07/25 15:44:27;;;;;;;;;;;;;;;;;;5055501;28;19924;-76
2022/07/25 15:46:52;;;;;;;;;;;;;;;;;;5055166;28;19920;-77
2022/07/25 15:49:17;;;;;;;;;;;;;;;;;;5055435;28;19917;-77
2022/07/25 15:51:43;;;;;;;;;;;;;;;;;;5039194;28;19952;-78
2022/07/25 15:54:08;;;;;;;;;;;;;;;;;;5055656;28;19920;-77
2022/07/25 15:56:33;;;;;;;;;;;;;;;;;;5057107;28;20347;-76
2022/07/25 15:58:58;;;;;;;;;;;;;;;;;;5056501;28;19917;-76
2022/07/25 16:01:24;;;;;;;;;;;;;;;;;;5055578;28;19940;-76
2022/07/25 16:03:49;;;;;;;;;;;;;;;;;;5056318;28;20334;-77
2022/07/25 16:06:19;;;;;;;;;;;;;;;;;;5056076;28;19967;-77
2022/07/25 16:08:44;;;;;;;;;;;;;;;;;;5055177;28;19966;-77
2022/07/25 16:11:09;;;;;;;;;;;;;;;;;;5055097;28;19912;-78
2022/07/25 16:13:35;;;;;;;;;;;;;;;;;;5056258;28;20336;-79
2022/07/25 16:16:00;;;;;;;;;;;;;;;;;;5054931;28;19939;-79
2022/07/25 16:18:25;;;;;;;;;;;;;;;;;;5056030;28;20000;-80
2022/07/25 16:20:51;;;;;;;;;;;;;;;;;;5055348;28;20336;-80
2022/07/25 16:23:16;;;;;;;;;;;;;;;;;;5056400;28;19982;-79
2022/07/25 16:25:41;;;;;;;;;;;;;;;;;;5054497;28;20294;-80
2022/07/25 16:28:06;;;;;;;;;;;;;;;;;;5055099;28;19916;-79
2022/07/25 16:30:32;;;;;;;;;;;;;;;;;;5056666;28;19917;-80
2022/07/25 16:32:57;;;;;;;;;;;;;;;;;;5056790;28;19920;-80
2022/07/25 16:35:22;;;;;;;;;;;;;;;;;;5058751;28;19994;-80
2022/07/25 16:37:55;;;;;;;;;;;;;;;;;;5039354;28;19913;-79
2022/07/25 16:40:20;;;;;;;;;;;;;;;;;;5057740;28;19917;-79
2022/07/25 16:42:47;;;;;;;;;;;;;;;;;;5056315;28;20394;-79